sensor_id;sensor_type;location;lat;lon;timestamp;P1;durP1;ratioP1;P2;durP2;ratioP2
54539;SDS011;40438;52.992;18.604;2023-04-25T00:01:10;6.45;;;3.92;;
54539;SDS011;40438;52.992;18.604;2023-04-25T00:03:36;4.25;;;2.95;;
54539;SDS011;40438;52.992;18.604;2023-04-25T00:06:01;7.82;;;3.60;;
54539;SDS011;40438;52.992;18.604;2023-04-25T00:08:28;4.70;;;3.17;;
54539;SDS011;40438;52.992;18.604;2023-04-25T00:10:54;6.93;;;3.88;;
54539;SDS011;40438;52.992;18.604;2023-04-25T00:13:19;8.30;;;3.45;;
54539;SDS011;40438;52.992;18.604;2023-04-25T00:15:47;6.53;;;3.03;;
54539;SDS011;40438;52.992;18.604;2023-04-25T00:18:12;8.07;;;3.63;;
54539;SDS011;40438;52.992;18.604;2023-04-25T00:20:38;4.55;;;3.00;;
54539;SDS011;40438;52.992;18.604;2023-04-25T00:23:04;4.88;;;3.00;;
54539;SDS011;40438;52.992;18.604;2023-04-25T00:25:30;3.28;;;2.50;;
54539;SDS011;40438;52.992;18.604;2023-04-25T00:27:56;4.05;;;2.65;;
54539;SDS011;40438;52.992;18.604;2023-04-25T00:30:22;4.47;;;3.10;;
54539;SDS011;40438;52.992;18.604;2023-04-25T00:32:49;4.53;;;2.90;;
54539;SDS011;40438;52.992;18.604;2023-04-25T00:35:15;4.50;;;3.00;;
54539;SDS011;40438;52.992;18.604;2023-04-25T00:37:41;3.88;;;2.80;;
54539;SDS011;40438;52.992;18.604;2023-04-25T00:40:07;6.80;;;3.15;;
54539;SDS011;40438;52.992;18.604;2023-04-25T00:42:33;5.50;;;2.75;;
54539;SDS011;40438;52.992;18.604;2023-04-25T00:45:00;6.95;;;3.03;;
54539;SDS011;40438;52.992;18.604;2023-04-25T00:47:26;9.88;;;3.67;;
54539;SDS011;40438;52.992;18.604;2023-04-25T00:49:55;6.13;;;3.08;;
54539;SDS011;40438;52.992;18.604;2023-04-25T00:52:21;5.43;;;3.50;;
54539;SDS011;40438;52.992;18.604;2023-04-25T00:54:47;7.70;;;3.97;;
54539;SDS011;40438;52.992;18.604;2023-04-25T00:57:12;35.38;;;13.48;;
54539;SDS011;40438;52.992;18.604;2023-04-25T00:59:40;27.40;;;12.60;;
54539;SDS011;40438;52.992;18.604;2023-04-25T01:02:10;23.37;;;9.10;;
54539;SDS011;40438;52.992;18.604;2023-04-25T01:04:36;10.88;;;5.78;;
54539;SDS011;40438;52.992;18.604;2023-04-25T01:07:03;7.25;;;4.47;;
54539;SDS011;40438;52.992;18.604;2023-04-25T01:09:30;9.05;;;4.53;;
54539;SDS011;40438;52.992;18.604;2023-04-25T01:11:56;7.78;;;4.07;;
54539;SDS011;40438;52.992;18.604;2023-04-25T01:14:22;6.07;;;4.15;;
54539;SDS011;40438;52.992;18.604;2023-04-25T01:16:47;6.85;;;4.22;;
54539;SDS011;40438;52.992;18.604;2023-04-25T01:19:13;8.95;;;3.53;;
54539;SDS011;40438;52.992;18.604;2023-04-25T01:21:43;6.10;;;3.97;;
54539;SDS011;40438;52.992;18.604;2023-04-25T01:24:10;7.75;;;4.18;;
54539;SDS011;40438;52.992;18.604;2023-04-25T01:26:36;8.80;;;3.67;;
54539;SDS011;40438;52.992;18.604;2023-04-25T01:29:03;5.00;;;3.50;;
54539;SDS011;40438;52.992;18.604;2023-04-25T01:31:29;6.25;;;4.20;;
54539;SDS011;40438;52.992;18.604;2023-04-25T01:33:56;6.72;;;3.97;;
54539;SDS011;40438;52.992;18.604;2023-04-25T01:36:22;5.68;;;3.50;;
54539;SDS011;40438;52.992;18.604;2023-04-25T01:38:49;6.13;;;3.60;;
54539;SDS011;40438;52.992;18.604;2023-04-25T01:41:16;7.72;;;3.67;;
54539;SDS011;40438;52.992;18.604;2023-04-25T01:43:42;6.35;;;3.88;;
54539;SDS011;40438;52.992;18.604;2023-04-25T01:46:08;6.93;;;3.60;;
54539;SDS011;40438;52.992;18.604;2023-04-25T01:48:34;6.13;;;3.65;;
54539;SDS011;40438;52.992;18.604;2023-04-25T01:51:00;7.07;;;3.63;;
54539;SDS011;40438;52.992;18.604;2023-04-25T01:53:27;4.75;;;3.45;;
54539;SDS011;40438;52.992;18.604;2023-04-25T01:55:54;6.22;;;3.90;;
54539;SDS011;40438;52.992;18.604;2023-04-25T01:58:23;4.53;;;2.97;;
54539;SDS011;40438;52.992;18.604;2023-04-25T02:01:09;6.43;;;3.30;;
54539;SDS011;40438;52.992;18.604;2023-04-25T02:03:42;6.28;;;3.03;;
54539;SDS011;40438;52.992;18.604;2023-04-25T02:06:17;6.03;;;3.28;;
54539;SDS011;40438;52.992;18.604;2023-04-25T02:08:45;6.93;;;3.40;;
54539;SDS011;40438;52.992;18.604;2023-04-25T02:11:13;7.68;;;3.28;;
54539;SDS011;40438;52.992;18.604;2023-04-25T02:13:57;6.70;;;3.03;;
54539;SDS011;40438;52.992;18.604;2023-04-25T02:16:36;5.25;;;2.97;;
54539;SDS011;40438;52.992;18.604;2023-04-25T02:19:01;5.50;;;3.08;;
54539;SDS011;40438;52.992;18.604;2023-04-25T02:21:29;6.10;;;3.15;;
54539;SDS011;40438;52.992;18.604;2023-04-25T02:23:55;6.50;;;3.00;;
54539;SDS011;40438;52.992;18.604;2023-04-25T02:26:22;5.43;;;3.25;;
54539;SDS011;40438;52.992;18.604;2023-04-25T02:28:48;5.82;;;3.25;;
54539;SDS011;40438;52.992;18.604;2023-04-25T02:31:14;4.90;;;3.33;;
54539;SDS011;40438;52.992;18.604;2023-04-25T02:33:40;4.40;;;3.00;;
54539;SDS011;40438;52.992;18.604;2023-04-25T02:36:06;5.65;;;2.97;;
54539;SDS011;40438;52.992;18.604;2023-04-25T02:38:32;4.30;;;3.20;;
54539;SDS011;40438;52.992;18.604;2023-04-25T02:40:58;6.75;;;2.95;;
54539;SDS011;40438;52.992;18.604;2023-04-25T02:43:26;4.80;;;3.00;;
54539;SDS011;40438;52.992;18.604;2023-04-25T02:45:52;4.80;;;2.72;;
54539;SDS011;40438;52.992;18.604;2023-04-25T02:48:18;4.47;;;2.85;;
54539;SDS011;40438;52.992;18.604;2023-04-25T02:50:44;5.28;;;2.97;;
54539;SDS011;40438;52.992;18.604;2023-04-25T02:53:10;4.25;;;3.08;;
54539;SDS011;40438;52.992;18.604;2023-04-25T02:55:43;5.35;;;2.92;;
54539;SDS011;40438;52.992;18.604;2023-04-25T02:58:09;4.75;;;3.10;;
54539;SDS011;40438;52.992;18.604;2023-04-25T03:00:44;3.05;;;2.55;;
54539;SDS011;40438;52.992;18.604;2023-04-25T03:03:10;4.05;;;2.70;;
54539;SDS011;40438;52.992;18.604;2023-04-25T03:05:35;6.07;;;2.80;;
54539;SDS011;40438;52.992;18.604;2023-04-25T03:08:01;3.28;;;2.28;;
54539;SDS011;40438;52.992;18.604;2023-04-25T03:10:28;4.22;;;2.65;;
54539;SDS011;40438;52.992;18.604;2023-04-25T03:12:58;3.35;;;2.42;;
54539;SDS011;40438;52.992;18.604;2023-04-25T03:15:24;5.00;;;2.72;;
54539;SDS011;40438;52.992;18.604;2023-04-25T03:17:53;4.80;;;2.95;;
54539;SDS011;40438;52.992;18.604;2023-04-25T03:20:18;4.45;;;2.42;;
54539;SDS011;40438;52.992;18.604;2023-04-25T03:22:44;3.78;;;2.30;;
54539;SDS011;40438;52.992;18.604;2023-04-25T03:25:10;3.40;;;2.47;;
54539;SDS011;40438;52.992;18.604;2023-04-25T03:27:36;3.83;;;2.70;;
54539;SDS011;40438;52.992;18.604;2023-04-25T03:30:02;5.13;;;2.78;;
54539;SDS011;40438;52.992;18.604;2023-04-25T03:32:29;5.63;;;2.50;;
54539;SDS011;40438;52.992;18.604;2023-04-25T03:34:56;3.45;;;2.22;;
54539;SDS011;40438;52.992;18.604;2023-04-25T03:37:24;3.83;;;2.38;;
54539;SDS011;40438;52.992;18.604;2023-04-25T03:39:50;4.65;;;1.88;;
54539;SDS011;40438;52.992;18.604;2023-04-25T03:42:16;3.35;;;2.22;;
54539;SDS011;40438;52.992;18.604;2023-04-25T03:44:43;3.92;;;2.40;;
54539;SDS011;40438;52.992;18.604;2023-04-25T03:47:09;3.33;;;2.05;;
54539;SDS011;40438;52.992;18.604;2023-04-25T03:49:35;4.22;;;2.35;;
54539;SDS011;40438;52.992;18.604;2023-04-25T03:52:04;4.35;;;2.55;;
54539;SDS011;40438;52.992;18.604;2023-04-25T03:54:35;2.45;;;1.98;;
54539;SDS011;40438;52.992;18.604;2023-04-25T03:57:10;3.78;;;2.38;;
54539;SDS011;40438;52.992;18.604;2023-04-25T03:59:38;6.35;;;2.35;;
54539;SDS011;40438;52.992;18.604;2023-04-25T04:02:05;3.08;;;2.15;;
54539;SDS011;40438;52.992;18.604;2023-04-25T04:04:34;3.72;;;2.20;;
54539;SDS011;40438;52.992;18.604;2023-04-25T04:07:00;3.50;;;2.20;;
54539;SDS011;40438;52.992;18.604;2023-04-25T04:09:31;7.00;;;2.17;;
54539;SDS011;40438;52.992;18.604;2023-04-25T04:11:58;3.83;;;1.92;;
54539;SDS011;40438;52.992;18.604;2023-04-25T04:14:24;3.58;;;2.22;;
54539;SDS011;40438;52.992;18.604;2023-04-25T04:16:51;6.00;;;1.83;;
54539;SDS011;40438;52.992;18.604;2023-04-25T04:19:17;2.53;;;2.13;;
54539;SDS011;40438;52.992;18.604;2023-04-25T04:21:50;3.13;;;1.45;;
54539;SDS011;40438;52.992;18.604;2023-04-25T04:24:16;2.28;;;1.67;;
54539;SDS011;40438;52.992;18.604;2023-04-25T04:26:57;3.83;;;1.63;;
54539;SDS011;40438;52.992;18.604;2023-04-25T04:29:52;2.75;;;1.60;;
54539;SDS011;40438;52.992;18.604;2023-04-25T04:32:25;1.77;;;1.45;;
54539;SDS011;40438;52.992;18.604;2023-04-25T04:34:52;2.72;;;1.50;;
54539;SDS011;40438;52.992;18.604;2023-04-25T04:37:20;1.80;;;1.42;;
54539;SDS011;40438;52.992;18.604;2023-04-25T04:39:46;3.33;;;1.77;;
54539;SDS011;40438;52.992;18.604;2023-04-25T04:42:33;4.30;;;2.15;;
54539;SDS011;40438;52.992;18.604;2023-04-25T04:45:12;2.40;;;1.85;;
54539;SDS011;40438;52.992;18.604;2023-04-25T04:47:50;2.15;;;1.40;;
54539;SDS011;40438;52.992;18.604;2023-04-25T04:50:36;1.80;;;1.40;;
54539;SDS011;40438;52.992;18.604;2023-04-25T04:53:17;2.30;;;1.35;;
54539;SDS011;40438;52.992;18.604;2023-04-25T04:56:08;2.13;;;1.30;;
54539;SDS011;40438;52.992;18.604;2023-04-25T04:58:59;3.08;;;1.63;;
54539;SDS011;40438;52.992;18.604;2023-04-25T05:01:43;2.85;;;1.30;;
54539;SDS011;40438;52.992;18.604;2023-04-25T05:04:29;3.47;;;1.55;;
54539;SDS011;40438;52.992;18.604;2023-04-25T05:06:55;2.10;;;1.60;;
54539;SDS011;40438;52.992;18.604;2023-04-25T05:09:39;2.22;;;1.50;;
54539;SDS011;40438;52.992;18.604;2023-04-25T05:12:28;2.45;;;1.60;;
54539;SDS011;40438;52.992;18.604;2023-04-25T05:15:16;2.67;;;1.63;;
54539;SDS011;40438;52.992;18.604;2023-04-25T05:18:11;1.88;;;1.25;;
54539;SDS011;40438;52.992;18.604;2023-04-25T05:21:12;1.83;;;1.30;;
54539;SDS011;40438;52.992;18.604;2023-04-25T05:23:48;1.63;;;1.13;;
54539;SDS011;40438;52.992;18.604;2023-04-25T05:26:32;2.30;;;1.35;;
54539;SDS011;40438;52.992;18.604;2023-04-25T05:29:19;1.95;;;1.40;;
54539;SDS011;40438;52.992;18.604;2023-04-25T05:32:05;2.72;;;1.20;;
54539;SDS011;40438;52.992;18.604;2023-04-25T05:34:31;1.30;;;0.90;;
54539;SDS011;40438;52.992;18.604;2023-04-25T05:37:04;1.73;;;1.10;;
54539;SDS011;40438;52.992;18.604;2023-04-25T05:39:31;2.35;;;1.30;;
54539;SDS011;40438;52.992;18.604;2023-04-25T05:42:14;1.73;;;1.10;;
54539;SDS011;40438;52.992;18.604;2023-04-25T05:45:16;2.15;;;1.38;;
54539;SDS011;40438;52.992;18.604;2023-04-25T05:48:04;1.83;;;1.20;;
54539;SDS011;40438;52.992;18.604;2023-04-25T05:50:53;1.73;;;1.38;;
54539;SDS011;40438;52.992;18.604;2023-04-25T05:53:35;2.70;;;1.40;;
54539;SDS011;40438;52.992;18.604;2023-04-25T05:56:01;2.03;;;1.30;;
54539;SDS011;40438;52.992;18.604;2023-04-25T05:58:28;2.15;;;1.13;;
54539;SDS011;40438;52.992;18.604;2023-04-25T06:00:55;2.13;;;1.33;;
54539;SDS011;40438;52.992;18.604;2023-04-25T06:03:23;2.58;;;1.33;;
54539;SDS011;40438;52.992;18.604;2023-04-25T06:05:49;1.70;;;1.17;;
54539;SDS011;40438;52.992;18.604;2023-04-25T06:08:15;1.95;;;1.10;;
54539;SDS011;40438;52.992;18.604;2023-04-25T06:10:42;2.58;;;1.40;;
54539;SDS011;40438;52.992;18.604;2023-04-25T06:13:08;3.60;;;1.35;;
54539;SDS011;40438;52.992;18.604;2023-04-25T06:15:35;1.75;;;1.33;;
54539;SDS011;40438;52.992;18.604;2023-04-25T06:18:01;2.30;;;1.27;;
54539;SDS011;40438;52.992;18.604;2023-04-25T06:20:28;2.85;;;1.27;;
54539;SDS011;40438;52.992;18.604;2023-04-25T06:22:57;3.85;;;1.48;;
54539;SDS011;40438;52.992;18.604;2023-04-25T06:25:39;2.22;;;1.38;;
54539;SDS011;40438;52.992;18.604;2023-04-25T06:28:05;2.28;;;1.25;;
54539;SDS011;40438;52.992;18.604;2023-04-25T06:30:31;3.00;;;1.30;;
54539;SDS011;40438;52.992;18.604;2023-04-25T06:33:02;5.75;;;1.50;;
54539;SDS011;40438;52.992;18.604;2023-04-25T06:35:30;2.60;;;1.58;;
54539;SDS011;40438;52.992;18.604;2023-04-25T06:37:56;2.78;;;1.25;;
54539;SDS011;40438;52.992;18.604;2023-04-25T06:40:23;3.30;;;1.65;;
54539;SDS011;40438;52.992;18.604;2023-04-25T06:42:49;2.00;;;1.33;;
54539;SDS011;40438;52.992;18.604;2023-04-25T06:45:31;1.98;;;1.63;;
54539;SDS011;40438;52.992;18.604;2023-04-25T06:47:58;5.43;;;2.03;;
54539;SDS011;40438;52.992;18.604;2023-04-25T06:50:23;2.55;;;1.63;;
54539;SDS011;40438;52.992;18.604;2023-04-25T06:52:51;3.33;;;1.77;;
54539;SDS011;40438;52.992;18.604;2023-04-25T06:55:18;3.85;;;1.70;;
54539;SDS011;40438;52.992;18.604;2023-04-25T06:57:58;3.55;;;1.60;;
54539;SDS011;40438;52.992;18.604;2023-04-25T07:00:47;2.63;;;1.80;;
54539;SDS011;40438;52.992;18.604;2023-04-25T07:03:13;2.47;;;1.63;;
54539;SDS011;40438;52.992;18.604;2023-04-25T07:05:39;3.63;;;1.92;;
54539;SDS011;40438;52.992;18.604;2023-04-25T07:08:07;3.63;;;1.70;;
54539;SDS011;40438;52.992;18.604;2023-04-25T07:10:33;5.20;;;1.90;;
54539;SDS011;40438;52.992;18.604;2023-04-25T07:12:58;6.40;;;2.00;;
54539;SDS011;40438;52.992;18.604;2023-04-25T07:15:24;3.33;;;1.88;;
54539;SDS011;40438;52.992;18.604;2023-04-25T07:17:50;4.90;;;1.85;;
54539;SDS011;40438;52.992;18.604;2023-04-25T07:20:16;2.35;;;1.40;;
54539;SDS011;40438;52.992;18.604;2023-04-25T07:22:42;3.58;;;1.60;;
54539;SDS011;40438;52.992;18.604;2023-04-25T07:25:10;5.15;;;1.80;;
54539;SDS011;40438;52.992;18.604;2023-04-25T07:27:36;4.38;;;1.70;;
54539;SDS011;40438;52.992;18.604;2023-04-25T07:30:15;3.13;;;1.50;;
54539;SDS011;40438;52.992;18.604;2023-04-25T07:32:41;2.25;;;1.55;;
54539;SDS011;40438;52.992;18.604;2023-04-25T07:35:07;2.80;;;1.73;;
54539;SDS011;40438;52.992;18.604;2023-04-25T07:37:34;2.78;;;1.50;;
54539;SDS011;40438;52.992;18.604;2023-04-25T07:40:15;2.08;;;1.63;;
54539;SDS011;40438;52.992;18.604;2023-04-25T07:42:45;2.50;;;1.58;;
54539;SDS011;40438;52.992;18.604;2023-04-25T07:45:14;3.70;;;2.00;;
54539;SDS011;40438;52.992;18.604;2023-04-25T07:47:40;1.60;;;1.50;;
54539;SDS011;40438;52.992;18.604;2023-04-25T07:50:06;2.65;;;1.75;;
54539;SDS011;40438;52.992;18.604;2023-04-25T07:52:33;3.67;;;1.70;;
54539;SDS011;40438;52.992;18.604;2023-04-25T07:55:06;3.03;;;1.77;;
54539;SDS011;40438;52.992;18.604;2023-04-25T07:57:43;2.95;;;1.80;;
54539;SDS011;40438;52.992;18.604;2023-04-25T08:00:10;4.00;;;1.85;;
54539;SDS011;40438;52.992;18.604;2023-04-25T08:02:43;2.38;;;1.77;;
54539;SDS011;40438;52.992;18.604;2023-04-25T08:05:14;3.35;;;1.83;;
54539;SDS011;40438;52.992;18.604;2023-04-25T08:07:42;2.80;;;1.58;;
54539;SDS011;40438;52.992;18.604;2023-04-25T08:10:08;2.85;;;1.65;;
54539;SDS011;40438;52.992;18.604;2023-04-25T08:12:34;3.15;;;1.70;;
54539;SDS011;40438;52.992;18.604;2023-04-25T08:15:02;2.97;;;1.60;;
54539;SDS011;40438;52.992;18.604;2023-04-25T08:17:33;4.93;;;2.15;;
54539;SDS011;40438;52.992;18.604;2023-04-25T08:19:58;3.30;;;1.88;;
54539;SDS011;40438;52.992;18.604;2023-04-25T08:22:30;2.33;;;1.50;;
54539;SDS011;40438;52.992;18.604;2023-04-25T08:25:16;2.95;;;1.80;;
54539;SDS011;40438;52.992;18.604;2023-04-25T08:27:42;2.72;;;1.50;;
54539;SDS011;40438;52.992;18.604;2023-04-25T08:30:11;2.03;;;1.50;;
54539;SDS011;40438;52.992;18.604;2023-04-25T08:32:39;2.15;;;1.30;;
54539;SDS011;40438;52.992;18.604;2023-04-25T08:35:24;1.60;;;1.15;;
54539;SDS011;40438;52.992;18.604;2023-04-25T08:37:50;3.33;;;1.20;;
54539;SDS011;40438;52.992;18.604;2023-04-25T08:40:16;1.52;;;1.40;;
54539;SDS011;40438;52.992;18.604;2023-04-25T08:42:53;1.42;;;1.20;;
54539;SDS011;40438;52.992;18.604;2023-04-25T08:45:22;2.15;;;1.83;;
54539;SDS011;40438;52.992;18.604;2023-04-25T08:47:48;2.63;;;1.52;;
54539;SDS011;40438;52.992;18.604;2023-04-25T08:50:17;2.92;;;1.52;;
54539;SDS011;40438;52.992;18.604;2023-04-25T08:52:44;2.75;;;2.00;;
54539;SDS011;40438;52.992;18.604;2023-04-25T08:55:10;4.60;;;1.30;;
54539;SDS011;40438;52.992;18.604;2023-04-25T08:57:38;3.55;;;1.58;;
54539;SDS011;40438;52.992;18.604;2023-04-25T09:00:08;3.15;;;1.42;;
54539;SDS011;40438;52.992;18.604;2023-04-25T09:02:38;3.03;;;1.58;;
54539;SDS011;40438;52.992;18.604;2023-04-25T09:05:07;2.42;;;1.48;;
54539;SDS011;40438;52.992;18.604;2023-04-25T09:07:34;2.70;;;1.67;;
54539;SDS011;40438;52.992;18.604;2023-04-25T09:09:59;1.75;;;1.38;;
54539;SDS011;40438;52.992;18.604;2023-04-25T09:12:26;3.33;;;1.58;;
54539;SDS011;40438;52.992;18.604;2023-04-25T09:15:05;3.13;;;1.25;;
54539;SDS011;40438;52.992;18.604;2023-04-25T09:17:56;2.35;;;1.55;;
54539;SDS011;40438;52.992;18.604;2023-04-25T09:20:24;1.73;;;1.42;;
54539;SDS011;40438;52.992;18.604;2023-04-25T09:22:59;1.50;;;1.35;;
54539;SDS011;40438;52.992;18.604;2023-04-25T09:25:28;1.95;;;1.20;;
54539;SDS011;40438;52.992;18.604;2023-04-25T09:27:59;4.03;;;2.33;;
54539;SDS011;40438;52.992;18.604;2023-04-25T09:30:31;1.98;;;1.58;;
54539;SDS011;40438;52.992;18.604;2023-04-25T09:33:26;3.67;;;1.58;;
54539;SDS011;40438;52.992;18.604;2023-04-25T09:35:53;1.80;;;1.35;;
54539;SDS011;40438;52.992;18.604;2023-04-25T09:38:27;3.95;;;1.50;;
54539;SDS011;40438;52.992;18.604;2023-04-25T09:41:16;2.40;;;1.40;;
54539;SDS011;40438;52.992;18.604;2023-04-25T09:43:48;1.90;;;1.05;;
54539;SDS011;40438;52.992;18.604;2023-04-25T09:46:14;2.13;;;1.33;;
54539;SDS011;40438;52.992;18.604;2023-04-25T09:48:49;3.95;;;1.33;;
54539;SDS011;40438;52.992;18.604;2023-04-25T09:51:17;1.90;;;1.40;;
54539;SDS011;40438;52.992;18.604;2023-04-25T09:53:45;2.35;;;1.63;;
54539;SDS011;40438;52.992;18.604;2023-04-25T09:56:18;2.63;;;1.58;;
54539;SDS011;40438;52.992;18.604;2023-04-25T09:58:47;4.22;;;1.65;;
54539;SDS011;40438;52.992;18.604;2023-04-25T10:01:16;2.55;;;1.98;;
54539;SDS011;40438;52.992;18.604;2023-04-25T10:04:03;2.00;;;1.48;;
54539;SDS011;40438;52.992;18.604;2023-04-25T10:06:57;3.33;;;1.65;;
54539;SDS011;40438;52.992;18.604;2023-04-25T10:09:25;2.20;;;1.63;;
54539;SDS011;40438;52.992;18.604;2023-04-25T10:11:51;5.63;;;1.50;;
54539;SDS011;40438;52.992;18.604;2023-04-25T10:14:18;2.13;;;1.63;;
54539;SDS011;40438;52.992;18.604;2023-04-25T10:16:44;1.50;;;1.40;;
54539;SDS011;40438;52.992;18.604;2023-04-25T10:19:12;2.42;;;1.60;;
54539;SDS011;40438;52.992;18.604;2023-04-25T10:21:39;2.25;;;1.42;;
54539;SDS011;40438;52.992;18.604;2023-04-25T10:24:09;3.10;;;1.70;;
54539;SDS011;40438;52.992;18.604;2023-04-25T10:26:35;5.82;;;1.95;;
54539;SDS011;40438;52.992;18.604;2023-04-25T10:29:02;2.13;;;1.40;;
54539;SDS011;40438;52.992;18.604;2023-04-25T10:31:29;2.92;;;1.80;;
54539;SDS011;40438;52.992;18.604;2023-04-25T10:33:55;1.92;;;1.40;;
54539;SDS011;40438;52.992;18.604;2023-04-25T10:36:22;3.55;;;2.03;;
54539;SDS011;40438;52.992;18.604;2023-04-25T10:38:49;1.75;;;1.42;;
54539;SDS011;40438;52.992;18.604;2023-04-25T10:41:17;4.20;;;1.80;;
54539;SDS011;40438;52.992;18.604;2023-04-25T10:43:44;4.13;;;1.92;;
54539;SDS011;40438;52.992;18.604;2023-04-25T10:46:13;3.38;;;2.20;;
54539;SDS011;40438;52.992;18.604;2023-04-25T10:48:44;2.97;;;2.03;;
54539;SDS011;40438;52.992;18.604;2023-04-25T10:51:12;6.30;;;2.30;;
54539;SDS011;40438;52.992;18.604;2023-04-25T10:53:44;3.17;;;2.00;;
54539;SDS011;40438;52.992;18.604;2023-04-25T10:56:11;3.05;;;2.05;;
54539;SDS011;40438;52.992;18.604;2023-04-25T10:58:41;2.90;;;1.90;;
54539;SDS011;40438;52.992;18.604;2023-04-25T11:01:07;2.33;;;1.80;;
54539;SDS011;40438;52.992;18.604;2023-04-25T11:03:36;2.45;;;1.50;;
54539;SDS011;40438;52.992;18.604;2023-04-25T11:06:05;4.50;;;1.60;;
54539;SDS011;40438;52.992;18.604;2023-04-25T11:08:47;5.65;;;1.83;;
54539;SDS011;40438;52.992;18.604;2023-04-25T11:11:17;1.50;;;1.30;;
54539;SDS011;40438;52.992;18.604;2023-04-25T11:13:44;2.88;;;1.55;;
54539;SDS011;40438;52.992;18.604;2023-04-25T11:16:12;3.72;;;1.42;;
54539;SDS011;40438;52.992;18.604;2023-04-25T11:18:40;1.90;;;1.35;;
54539;SDS011;40438;52.992;18.604;2023-04-25T11:21:06;4.32;;;1.48;;
54539;SDS011;40438;52.992;18.604;2023-04-25T11:23:32;4.15;;;1.55;;
54539;SDS011;40438;52.992;18.604;2023-04-25T11:25:59;3.33;;;1.67;;
54539;SDS011;40438;52.992;18.604;2023-04-25T11:28:25;2.50;;;1.02;;
54539;SDS011;40438;52.992;18.604;2023-04-25T11:30:51;1.75;;;1.30;;
54539;SDS011;40438;52.992;18.604;2023-04-25T11:33:17;1.60;;;1.40;;
54539;SDS011;40438;52.992;18.604;2023-04-25T11:35:47;1.90;;;1.00;;
54539;SDS011;40438;52.992;18.604;2023-04-25T11:38:13;1.25;;;1.05;;
54539;SDS011;40438;52.992;18.604;2023-04-25T11:40:39;3.50;;;1.10;;
54539;SDS011;40438;52.992;18.604;2023-04-25T11:43:07;3.22;;;1.98;;
54539;SDS011;40438;52.992;18.604;2023-04-25T11:45:36;2.95;;;1.70;;
54539;SDS011;40438;52.992;18.604;2023-04-25T11:48:02;3.47;;;1.50;;
54539;SDS011;40438;52.992;18.604;2023-04-25T11:50:28;1.92;;;1.23;;
54539;SDS011;40438;52.992;18.604;2023-04-25T11:52:55;2.88;;;1.77;;
54539;SDS011;40438;52.992;18.604;2023-04-25T11:55:21;5.68;;;2.15;;
54539;SDS011;40438;52.992;18.604;2023-04-25T11:57:48;4.13;;;2.05;;
54539;SDS011;40438;52.992;18.604;2023-04-25T12:00:17;2.17;;;1.70;;
54539;SDS011;40438;52.992;18.604;2023-04-25T12:02:44;4.55;;;1.38;;
54539;SDS011;40438;52.992;18.604;2023-04-25T12:05:11;2.80;;;1.65;;
54539;SDS011;40438;52.992;18.604;2023-04-25T12:07:38;2.78;;;1.70;;
54539;SDS011;40438;52.992;18.604;2023-04-25T12:10:04;2.00;;;1.33;;
54539;SDS011;40438;52.992;18.604;2023-04-25T12:12:32;5.15;;;2.35;;
54539;SDS011;40438;52.992;18.604;2023-04-25T12:15:07;4.43;;;2.03;;
54539;SDS011;40438;52.992;18.604;2023-04-25T12:17:35;2.88;;;1.88;;
54539;SDS011;40438;52.992;18.604;2023-04-25T12:20:05;3.03;;;1.55;;
54539;SDS011;40438;52.992;18.604;2023-04-25T12:22:32;3.85;;;1.60;;
54539;SDS011;40438;52.992;18.604;2023-04-25T12:24:59;2.10;;;1.55;;
54539;SDS011;40438;52.992;18.604;2023-04-25T12:27:25;2.17;;;1.40;;
54539;SDS011;40438;52.992;18.604;2023-04-25T12:29:51;2.17;;;1.55;;
54539;SDS011;40438;52.992;18.604;2023-04-25T12:32:18;1.77;;;1.38;;
54539;SDS011;40438;52.992;18.604;2023-04-25T12:34:45;3.25;;;1.83;;
54539;SDS011;40438;52.992;18.604;2023-04-25T12:37:11;2.80;;;1.83;;
54539;SDS011;40438;52.992;18.604;2023-04-25T12:39:37;2.75;;;1.50;;
54539;SDS011;40438;52.992;18.604;2023-04-25T12:42:03;3.45;;;1.70;;
54539;SDS011;40438;52.992;18.604;2023-04-25T12:44:29;1.58;;;1.30;;
54539;SDS011;40438;52.992;18.604;2023-04-25T12:46:54;2.95;;;1.48;;
54539;SDS011;40438;52.992;18.604;2023-04-25T12:49:20;4.75;;;1.50;;
54539;SDS011;40438;52.992;18.604;2023-04-25T12:51:47;2.80;;;1.48;;
54539;SDS011;40438;52.992;18.604;2023-04-25T12:54:13;3.17;;;1.77;;
54539;SDS011;40438;52.992;18.604;2023-04-25T12:56:39;3.30;;;1.75;;
54539;SDS011;40438;52.992;18.604;2023-04-25T12:59:06;1.85;;;1.70;;
54539;SDS011;40438;52.992;18.604;2023-04-25T13:01:32;3.03;;;1.70;;
54539;SDS011;40438;52.992;18.604;2023-04-25T13:03:57;3.53;;;1.88;;
54539;SDS011;40438;52.992;18.604;2023-04-25T13:06:23;2.53;;;1.70;;
54539;SDS011;40438;52.992;18.604;2023-04-25T13:08:51;4.13;;;2.22;;
54539;SDS011;40438;52.992;18.604;2023-04-25T13:11:16;2.13;;;1.83;;
54539;SDS011;40438;52.992;18.604;2023-04-25T13:13:42;3.70;;;2.08;;
54539;SDS011;40438;52.992;18.604;2023-04-25T13:16:09;2.33;;;2.03;;
54539;SDS011;40438;52.992;18.604;2023-04-25T13:18:35;2.53;;;2.15;;
54539;SDS011;40438;52.992;18.604;2023-04-25T13:21:00;3.28;;;1.92;;
54539;SDS011;40438;52.992;18.604;2023-04-25T13:23:27;4.40;;;1.88;;
54539;SDS011;40438;52.992;18.604;2023-04-25T13:25:55;2.13;;;1.67;;
54539;SDS011;40438;52.992;18.604;2023-04-25T13:28:21;2.92;;;1.60;;
54539;SDS011;40438;52.992;18.604;2023-04-25T13:30:47;2.20;;;1.58;;
54539;SDS011;40438;52.992;18.604;2023-04-25T13:33:13;2.88;;;1.67;;
54539;SDS011;40438;52.992;18.604;2023-04-25T13:35:38;3.28;;;1.73;;
54539;SDS011;40438;52.992;18.604;2023-04-25T13:38:04;2.83;;;2.03;;
54539;SDS011;40438;52.992;18.604;2023-04-25T13:40:30;4.40;;;2.22;;
54539;SDS011;40438;52.992;18.604;2023-04-25T13:42:58;5.32;;;2.30;;
54539;SDS011;40438;52.992;18.604;2023-04-25T13:45:24;3.45;;;1.92;;
54539;SDS011;40438;52.992;18.604;2023-04-25T13:47:49;2.90;;;1.70;;
54539;SDS011;40438;52.992;18.604;2023-04-25T13:50:15;4.82;;;1.88;;
54539;SDS011;40438;52.992;18.604;2023-04-25T13:52:41;2.88;;;1.70;;
54539;SDS011;40438;52.992;18.604;2023-04-25T13:55:08;3.90;;;2.03;;
54539;SDS011;40438;52.992;18.604;2023-04-25T13:57:34;5.50;;;2.33;;
54539;SDS011;40438;52.992;18.604;2023-04-25T14:00:02;2.92;;;1.98;;
54539;SDS011;40438;52.992;18.604;2023-04-25T14:02:32;2.00;;;1.63;;
54539;SDS011;40438;52.992;18.604;2023-04-25T14:04:57;4.28;;;2.10;;
54539;SDS011;40438;52.992;18.604;2023-04-25T14:07:23;3.80;;;2.25;;
54539;SDS011;40438;52.992;18.604;2023-04-25T14:09:50;3.58;;;2.45;;
54539;SDS011;40438;52.992;18.604;2023-04-25T14:12:15;3.22;;;1.63;;
54539;SDS011;40438;52.992;18.604;2023-04-25T14:14:41;2.83;;;2.13;;
54539;SDS011;40438;52.992;18.604;2023-04-25T14:17:09;3.25;;;2.13;;
54539;SDS011;40438;52.992;18.604;2023-04-25T14:19:35;3.17;;;2.03;;
54539;SDS011;40438;52.992;18.604;2023-04-25T14:22:01;2.72;;;1.75;;
54539;SDS011;40438;52.992;18.604;2023-04-25T14:24:26;5.00;;;2.00;;
54539;SDS011;40438;52.992;18.604;2023-04-25T14:26:52;2.95;;;1.80;;
54539;SDS011;40438;52.992;18.604;2023-04-25T14:29:18;4.38;;;2.15;;
54539;SDS011;40438;52.992;18.604;2023-04-25T14:31:44;4.78;;;2.20;;
54539;SDS011;40438;52.992;18.604;2023-04-25T14:34:11;2.63;;;2.08;;
54539;SDS011;40438;52.992;18.604;2023-04-25T14:36:37;3.42;;;2.35;;
54539;SDS011;40438;52.992;18.604;2023-04-25T14:39:03;6.10;;;2.42;;
54539;SDS011;40438;52.992;18.604;2023-04-25T14:41:29;4.93;;;2.53;;
54539;SDS011;40438;52.992;18.604;2023-04-25T14:43:55;3.17;;;2.20;;
54539;SDS011;40438;52.992;18.604;2023-04-25T14:46:21;3.38;;;1.98;;